Time;durP1;ratioP1;P1;durP2;ratioP2;P2;SDS_P1;SDS_P2;PMS_P1;PMS_P2;Temp;Humidity;BMP_temperature;BMP_pressure;BME280_temperature;BME280_humidity;BME280_pressure;Samples;Min_cycle;Max_cycle;Signal;HPM_P1;HPM_P2
2021/01/03 00:02:10;;;;;;;14.70;6.63;;;2.70;99.90;;;;;;5013165;28;20038;-58
2021/01/03 00:04:42;;;;;;;13.07;7.15;;;2.70;99.90;;;;;;5013290;28;20040;-58
2021/01/03 00:07:09;;;;;;;11.38;6.10;;;2.70;99.90;;;;;;5013106;28;20034;-58
2021/01/03 00:09:35;;;;;;;12.90;5.80;;;2.80;99.90;;;;;;5012245;28;20033;-59
2021/01/03 00:12:01;;;;;;;13.27;6.05;;;2.80;99.90;;;;;;5012961;28;20116;-59
2021/01/03 00:14:30;;;;;;;11.25;5.50;;;2.70;99.90;;;;;;5012171;28;20029;-57
2021/01/03 00:17:05;;;;;;;11.80;5.55;;;2.60;99.90;;;;;;5013278;28;20088;-58
2021/01/03 00:19:31;;;;;;;13.05;6.47;;;2.70;99.90;;;;;;5012920;28;20033;-58
2021/01/03 00:21:57;;;;;;;15.02;6.50;;;2.70;99.90;;;;;;5012714;28;20072;-58
2021/01/03 00:24:23;;;;;;;12.68;5.93;;;2.70;99.90;;;;;;5012639;28;20050;-58
2021/01/03 00:26:49;;;;;;;13.13;6.68;;;2.70;99.90;;;;;;5013217;28;20033;-58
2021/01/03 00:29:18;;;;;;;10.20;5.57;;;2.70;99.90;;;;;;5012830;28;20116;-58
2021/01/03 00:31:47;;;;;;;11.98;5.90;;;2.80;99.90;;;;;;5012908;28;20030;-57
2021/01/03 00:34:16;;;;;;;13.90;6.30;;;2.80;99.90;;;;;;5012856;28;20030;-58
2021/01/03 00:36:42;;;;;;;12.35;6.00;;;2.70;99.90;;;;;;5012983;28;20030;-58
2021/01/03 00:39:08;;;;;;;10.90;5.75;;;2.60;99.90;;;;;;5012555;28;20076;-58
2021/01/03 00:41:35;;;;;;;17.92;6.07;;;2.60;99.90;;;;;;5012918;28;20029;-58
2021/01/03 00:44:04;;;;;;;15.48;6.28;;;2.60;99.90;;;;;;5012270;28;20034;-59
2021/01/03 00:46:30;;;;;;;15.43;6.93;;;2.50;99.90;;;;;;5012533;28;20041;-57
2021/01/03 00:48:55;;;;;;;16.35;7.97;;;2.50;99.90;;;;;;5027995;28;20374;-59
2021/01/03 00:51:22;;;;;;;16.27;6.90;;;2.50;99.90;;;;;;5012306;28;20083;-58
2021/01/03 00:53:47;;;;;;;11.05;5.63;;;2.40;99.90;;;;;;5012741;28;20115;-58
2021/01/03 00:56:13;;;;;;;12.05;6.15;;;2.40;99.90;;;;;;5012250;28;20030;-58
2021/01/03 00:58:39;;;;;;;15.45;5.82;;;2.40;99.90;;;;;;5012757;28;20033;-58
2021/01/03 01:01:06;;;;;;;10.85;5.28;;;2.30;99.90;;;;;;5012159;28;20048;-58
2021/01/03 01:03:32;;;;;;;14.05;6.43;;;2.40;99.90;;;;;;5012584;28;20076;-58
2021/01/03 01:05:58;;;;;;;12.05;6.38;;;2.30;99.90;;;;;;5012473;28;20025;-58
2021/01/03 01:08:24;;;;;;;11.98;6.18;;;2.30;99.90;;;;;;5012466;28;20033;-58
2021/01/03 01:10:50;;;;;;;11.60;6.25;;;2.30;99.90;;;;;;5012198;28;20034;-58
2021/01/03 01:13:16;;;;;;;13.50;6.47;;;2.40;99.90;;;;;;5012457;28;20083;-59
2021/01/03 01:15:42;;;;;;;10.93;6.15;;;2.40;99.90;;;;;;5012553;28;20040;-58
2021/01/03 01:18:08;;;;;;;10.98;6.40;;;2.50;99.90;;;;;;5012370;28;20046;-59
2021/01/03 01:20:35;;;;;;;12.80;6.15;;;2.60;99.90;;;;;;5012288;28;20072;-58
2021/01/03 01:23:02;;;;;;;13.15;6.32;;;2.50;99.90;;;;;;5012360;28;20142;-58
2021/01/03 01:25:32;;;;;;;14.93;7.70;;;2.30;99.90;;;;;;5012464;28;20026;-58
2021/01/03 01:27:59;;;;;;;12.18;5.80;;;2.40;99.90;;;;;;5012049;28;20029;-57
2021/01/03 01:30:28;;;;;;;12.23;5.45;;;2.40;99.90;;;;;;5012146;28;20113;-58
2021/01/03 01:32:54;;;;;;;11.63;5.60;;;2.30;99.90;;;;;;5012112;28;20034;-58
2021/01/03 01:35:30;;;;;;;11.13;5.75;;;2.30;99.90;;;;;;5012215;28;20041;-56
2021/01/03 01:37:57;;;;;;;9.40;5.43;;;2.30;99.90;;;;;;5016061;28;20092;-57
2021/01/03 01:40:32;;;;;;;12.43;5.65;;;2.30;99.90;;;;;;5016137;28;20049;-58
2021/01/03 01:42:58;;;;;;;12.50;5.63;;;2.20;99.90;;;;;;5015785;28;20034;-58
2021/01/03 01:45:35;;;;;;;12.52;5.90;;;2.30;99.90;;;;;;5015910;28;20029;-58
2021/01/03 01:48:11;;;;;;;12.60;5.43;;;2.30;99.90;;;;;;5015789;28;20038;-57
2021/01/03 01:50:49;;;;;;;11.07;5.82;;;2.30;99.90;;;;;;5014658;28;20036;-59
2021/01/03 01:53:28;;;;;;;9.32;5.20;;;2.30;99.90;;;;;;5016038;28;20022;-58
2021/01/03 01:56:50;;;;;;;10.55;4.95;;;2.30;99.90;;;;;;5014864;28;20033;-58
2021/01/03 01:59:25;;;;;;;8.52;5.18;;;2.30;99.90;;;;;;5007828;28;20042;-58
2021/01/03 02:02:06;;;;;;;9.48;5.07;;;2.30;99.90;;;;;;5015498;28;20077;-58
2021/01/03 02:05:10;;;;;;;10.95;5.38;;;2.40;99.90;;;;;;5014674;28;20030;-58
2021/01/03 02:07:45;;;;;;;9.80;4.90;;;2.40;99.90;;;;;;5014665;28;20117;-59
2021/01/03 02:10:23;;;;;;;11.25;5.97;;;2.50;99.90;;;;;;4998204;28;20042;-59
2021/01/03 02:13:25;;;;;;;9.15;5.43;;;2.40;99.90;;;;;;5015795;28;20057;-59
2021/01/03 02:16:02;;;;;;;10.68;4.63;;;2.60;99.90;;;;;;5015654;28;20029;-58
2021/01/03 02:18:29;;;;;;;11.65;5.55;;;2.50;99.90;;;;;;5015198;28;20037;-58
2021/01/03 02:21:09;;;;;;;10.90;5.45;;;2.50;99.90;;;;;;5013781;28;20038;-59
2021/01/03 02:23:48;;;;;;;8.90;4.97;;;2.50;99.90;;;;;;5015077;28;20030;-59
2021/01/03 02:26:18;;;;;;;12.85;5.60;;;2.60;99.90;;;;;;5014259;28;20030;-58
2021/01/03 02:28:44;;;;;;;12.52;5.00;;;2.50;99.90;;;;;;5013837;28;20103;-58
2021/01/03 02:31:15;;;;;;;14.98;6.05;;;2.60;99.90;;;;;;5014929;28;20040;-59
2021/01/03 02:33:45;;;;;;;12.97;5.83;;;2.50;99.90;;;;;;5015022;28;20045;-58
2021/01/03 02:36:16;;;;;;;12.02;6.20;;;2.50;99.90;;;;;;5014855;28;20038;-58
2021/01/03 02:39:10;;;;;;;10.55;5.70;;;2.40;99.90;;;;;;5013740;28;20045;-59
2021/01/03 02:41:36;;;;;;;12.73;6.00;;;2.40;99.90;;;;;;5006580;28;20169;-59
2021/01/03 02:44:03;;;;;;;12.23;5.85;;;2.40;99.90;;;;;;5015054;28;20176;-58
2021/01/03 02:46:30;;;;;;;13.00;5.97;;;2.40;99.90;;;;;;5014480;28;20037;-58
2021/01/03 02:48:56;;;;;;;12.80;6.35;;;2.50;99.90;;;;;;5014940;28;20117;-58
2021/01/03 02:51:38;;;;;;;12.50;5.65;;;2.50;99.90;;;;;;5013580;28;20026;-58
2021/01/03 02:54:07;;;;;;;14.00;6.15;;;2.40;99.90;;;;;;5014961;28;20076;-58
2021/01/03 02:56:33;;;;;;;15.52;6.38;;;2.30;99.90;;;;;;5014978;28;20038;-58
2021/01/03 02:58:59;;;;;;;12.25;5.47;;;2.30;99.90;;;;;;5014799;28;20030;-59
2021/01/03 03:01:25;;;;;;;14.02;6.13;;;2.30;99.90;;;;;;5014298;28;20111;-58
2021/01/03 03:03:51;;;;;;;12.75;6.28;;;2.30;99.90;;;;;;5014468;28;20109;-58
2021/01/03 03:06:17;;;;;;;11.73;5.88;;;2.30;99.90;;;;;;5014313;28;20068;-58
2021/01/03 03:08:43;;;;;;;12.85;6.13;;;2.30;99.90;;;;;;5014272;28;20038;-59
2021/01/03 03:11:09;;;;;;;12.52;5.97;;;2.30;99.90;;;;;;5014156;28;20033;-58
2021/01/03 03:13:35;;;;;;;12.73;6.07;;;2.40;99.90;;;;;;5014546;28;20077;-57
2021/01/03 03:16:01;;;;;;;10.13;5.32;;;2.30;99.90;;;;;;5014201;28;20031;-59
2021/01/03 03:18:27;;;;;;;11.38;6.28;;;2.40;99.90;;;;;;5014334;28;20033;-58
2021/01/03 03:20:53;;;;;;;13.02;6.53;;;2.40;99.90;;;;;;5014190;28;20131;-58
2021/01/03 03:23:19;;;;;;;10.93;5.90;;;2.30;99.90;;;;;;5029502;28;20065;-58
2021/01/03 03:25:45;;;;;;;12.93;6.57;;;2.30;99.90;;;;;;5014063;28;20072;-59
2021/01/03 03:28:11;;;;;;;10.10;5.30;;;2.40;99.90;;;;;;5012968;28;20042;-59
2021/01/03 03:30:37;;;;;;;13.50;5.47;;;2.30;99.90;;;;;;5013943;28;20033;-58
2021/01/03 03:33:04;;;;;;;12.27;5.60;;;2.20;99.90;;;;;;5014151;28;20076;-57
2021/01/03 03:35:35;;;;;;;11.88;5.57;;;2.20;99.90;;;;;;5013712;28;20161;-58
2021/01/03 03:38:02;;;;;;;9.48;4.78;;;2.30;99.90;;;;;;5014136;28;20026;-58
2021/01/03 03:40:28;;;;;;;9.50;5.22;;;2.20;99.90;;;;;;5013999;28;20041;-58
2021/01/03 03:42:54;;;;;;;10.13;4.80;;;2.20;99.90;;;;;;5013985;28;20072;-58
2021/01/03 03:45:21;;;;;;;8.90;5.20;;;2.40;99.90;;;;;;5013747;28;20061;-58
2021/01/03 03:47:47;;;;;;;11.20;5.45;;;2.40;99.90;;;;;;5013955;28;20080;-58
2021/01/03 03:50:20;;;;;;;10.05;5.60;;;2.30;99.90;;;;;;5013740;28;20113;-58
2021/01/03 03:52:46;;;;;;;9.75;5.35;;;2.40;99.90;;;;;;5013671;28;20038;-58
2021/01/03 03:55:13;;;;;;;9.93;5.28;;;2.40;99.90;;;;;;5013642;28;20052;-58
2021/01/03 03:57:39;;;;;;;9.68;5.00;;;2.40;99.90;;;;;;5013715;28;20076;-59
2021/01/03 04:00:17;;;;;;;9.75;5.43;;;2.30;99.90;;;;;;5012701;28;20069;-58
2021/01/03 04:02:44;;;;;;;11.02;5.03;;;2.30;99.90;;;;;;5013260;28;20041;-58
2021/01/03 04:05:14;;;;;;;13.10;5.43;;;2.30;99.90;;;;;;5013602;28;20044;-58
2021/01/03 04:07:40;;;;;;;9.80;5.15;;;2.20;99.90;;;;;;5012114;28;20042;-58
2021/01/03 04:10:08;;;;;;;8.70;4.78;;;2.20;99.90;;;;;;5013485;28;20037;-58
2021/01/03 04:12:35;;;;;;;10.55;5.28;;;2.20;99.90;;;;;;5011900;28;20042;-58
2021/01/03 04:15:09;;;;;;;10.10;5.32;;;2.20;99.90;;;;;;5013443;28;20088;-58
2021/01/03 04:17:35;;;;;;;10.98;5.15;;;2.20;99.90;;;;;;5013131;28;20086;-57
2021/01/03 04:20:04;;;;;;;9.50;4.95;;;2.20;99.90;;;;;;5013397;28;20061;-58
2021/01/03 04:22:30;;;;;;;11.10;5.47;;;2.20;99.90;;;;;;5012654;28;20049;-58
2021/01/03 04:25:00;;;;;;;11.10;5.45;;;2.20;99.90;;;;;;5013188;28;20026;-58
2021/01/03 04:27:26;;;;;;;10.38;5.50;;;2.20;99.90;;;;;;5013104;28;20037;-58
2021/01/03 04:29:53;;;;;;;11.95;5.53;;;2.20;99.90;;;;;;5013196;28;20132;-57
2021/01/03 04:32:19;;;;;;;10.23;4.95;;;2.10;99.90;;;;;;5011466;28;20044;-59
2021/01/03 04:34:46;;;;;;;11.90;5.60;;;2.20;99.90;;;;;;5012769;28;20034;-58
2021/01/03 04:37:19;;;;;;;9.52;5.35;;;2.00;99.90;;;;;;5013065;28;20161;-58
2021/01/03 04:39:46;;;;;;;14.18;5.85;;;2.10;99.90;;;;;;5011672;28;20113;-58
2021/01/03 04:42:19;;;;;;;11.77;5.78;;;2.00;99.90;;;;;;5012922;28;20033;-58
2021/01/03 04:44:52;;;;;;;11.38;5.32;;;2.00;99.90;;;;;;5012825;28;20058;-58
2021/01/03 04:47:29;;;;;;;10.70;5.22;;;2.00;99.90;;;;;;5012841;28;20032;-58
2021/01/03 04:50:04;;;;;;;9.32;5.22;;;2.00;99.90;;;;;;4995302;28;20034;-58
2021/01/03 04:53:22;;;;;;;10.45;5.40;;;2.10;99.90;;;;;;5012479;28;20084;-58
2021/01/03 04:56:14;;;;;;;11.40;6.30;;;2.10;99.90;;;;;;4989850;28;20057;-57
2021/01/03 04:59:23;;;;;;;12.52;5.65;;;2.20;99.90;;;;;;5011657;28;20030;-58
2021/01/03 05:02:23;;;;;;;10.50;5.32;;;2.20;99.90;;;;;;5012619;28;20041;-58
2021/01/03 05:05:03;;;;;;;11.13;5.63;;;2.20;99.90;;;;;;5012345;28;20065;-59
2021/01/03 05:07:39;;;;;;;11.80;5.38;;;2.20;99.90;;;;;;5012284;28;20092;-58
2021/01/03 05:10:22;;;;;;;11.40;5.35;;;2.20;99.90;;;;;;5012042;28;20072;-58
2021/01/03 05:13:26;;;;;;;11.30;6.25;;;2.20;99.90;;;;;;5012669;28;20034;-58
2021/01/03 05:15:51;;;;;;;10.80;5.00;;;2.20;99.90;;;;;;5012588;28;20076;-59
2021/01/03 05:18:17;;;;;;;10.68;5.85;;;2.20;99.90;;;;;;5011267;28;20053;-59
2021/01/03 05:20:54;;;;;;;10.73;5.72;;;2.20;99.90;;;;;;5012292;28;20030;-59
2021/01/03 05:23:23;;;;;;;10.48;4.60;;;2.20;99.90;;;;;;5012303;28;20038;-58
2021/01/03 05:25:52;;;;;;;12.32;5.75;;;2.10;99.90;;;;;;5012826;28;20045;-58
2021/01/03 05:28:25;;;;;;;13.13;6.30;;;2.10;99.90;;;;;;5012328;28;20041;-59
2021/01/03 05:30:52;;;;;;;12.27;6.38;;;2.30;99.90;;;;;;5012428;28;20061;-57
2021/01/03 05:33:28;;;;;;;11.13;5.32;;;2.30;99.90;;;;;;5011938;28;20057;-59
2021/01/03 05:35:56;;;;;;;11.30;5.45;;;2.30;99.90;;;;;;5012435;28;20034;-58
2021/01/03 05:38:39;;;;;;;9.70;5.35;;;2.30;99.90;;;;;;5012257;28;20030;-59
2021/01/03 05:41:18;;;;;;;9.40;5.50;;;2.30;99.90;;;;;;5012371;28;20109;-57
2021/01/03 05:44:07;;;;;;;11.07;5.00;;;2.30;99.90;;;;;;5011889;28;20061;-58
2021/01/03 05:46:40;;;;;;;9.88;5.57;;;2.40;99.90;;;;;;5011187;28;20041;-59
2021/01/03 05:49:12;;;;;;;13.55;6.32;;;2.40;99.90;;;;;;5012329;28;20033;-58
2021/01/03 05:51:55;;;;;;;9.32;5.32;;;2.40;99.90;;;;;;5010659;28;20062;-57
2021/01/03 05:54:34;;;;;;;12.15;5.90;;;2.30;99.90;;;;;;5010931;28;20053;-58
2021/01/03 05:57:11;;;;;;;12.07;5.70;;;2.30;99.90;;;;;;5010727;28;20037;-58
2021/01/03 05:59:41;;;;;;;12.60;6.57;;;2.30;99.90;;;;;;5010915;28;20038;-58
2021/01/03 06:02:24;;;;;;;12.40;6.55;;;2.30;99.90;;;;;;5010846;28;20065;-57
2021/01/03 06:05:20;;;;;;;10.02;5.88;;;2.20;99.90;;;;;;5010989;28;20165;-58
2021/01/03 06:08:01;;;;;;;14.65;6.75;;;2.10;99.90;;;;;;5012183;28;20026;-58
2021/01/03 06:10:33;;;;;;;12.32;6.10;;;2.10;99.90;;;;;;5011681;28;20045;-59
2021/01/03 06:12:59;;;;;;;;;;;2.10;99.90;;;;;;5012542;28;20046;-58
2021/01/03 06:15:35;;;;;;;15.13;7.03;;;2.10;99.90;;;;;;5011557;28;19941;-59
2021/01/03 06:18:00;;;;;;;13.20;6.43;;;2.00;99.90;;;;;;5010862;28;20042;-59
2021/01/03 06:20:30;;;;;;;13.45;7.03;;;2.10;99.90;;;;;;5011810;28;20084;-59
2021/01/03 06:23:30;;;;;;;13.60;7.18;;;2.10;99.90;;;;;;5013723;28;20049;-59
2021/01/03 06:26:25;;;;;;;12.82;7.13;;;1.90;99.90;;;;;;5014024;28;20037;-58
2021/01/03 06:28:54;;;;;;;15.30;7.65;;;1.90;99.90;;;;;;5012908;28;20045;-58
2021/01/03 06:31:41;;;;;;;15.35;7.85;;;2.00;99.90;;;;;;5015140;28;20049;-57
2021/01/03 06:34:30;;;;;;;16.50;7.45;;;2.00;99.90;;;;;;5015241;28;20041;-58
2021/01/03 06:37:10;;;;;;;15.43;8.40;;;2.00;99.90;;;;;;5014245;28;20041;-58
2021/01/03 06:40:35;;;;;;;17.43;7.87;;;1.90;99.90;;;;;;5013927;28;20040;-58
2021/01/03 06:43:21;;;;;;;15.27;7.63;;;1.90;99.90;;;;;;5005434;28;20293;-58
2021/01/03 06:46:18;;;;;;;15.07;8.02;;;2.00;99.90;;;;;;5014617;28;20037;-58
2021/01/03 06:49:51;;;;;;;16.58;7.97;;;1.90;99.90;;;;;;5014640;28;20026;-58
2021/01/03 06:53:09;;;;;;;18.02;8.30;;;1.80;99.90;;;;;;4975516;28;20042;-57
2021/01/03 06:56:22;;;;;;;16.20;8.48;;;1.90;99.90;;;;;;5014626;28;20037;-57
2021/01/03 06:59:39;;;;;;;17.00;8.07;;;1.90;99.90;;;;;;4997783;28;20057;-58
2021/01/03 07:02:05;;;;;;;15.18;8.25;;;1.90;99.90;;;;;;5013293;28;20030;-58
2021/01/03 07:04:35;;;;;;;16.00;9.23;;;1.70;99.90;;;;;;5014490;28;20052;-58
2021/01/03 07:07:11;;;;;;;20.37;9.10;;;1.80;99.90;;;;;;5013477;28;20030;-58
2021/01/03 07:10:06;;;;;;;17.88;8.45;;;1.90;99.90;;;;;;5013099;28;20044;-58
2021/01/03 07:12:49;;;;;;;16.75;8.50;;;2.00;99.90;;;;;;5014339;28;20041;-58
2021/01/03 07:15:24;;;;;;;18.13;8.88;;;1.90;99.90;;;;;;5014124;28;20030;-57
2021/01/03 07:17:56;;;;;;;16.23;8.18;;;2.00;99.90;;;;;;5014081;28;20080;-57
2021/01/03 07:20:34;;;;;;;18.83;10.05;;;1.90;99.90;;;;;;5014270;28;20034;-58
2021/01/03 07:23:15;;;;;;;19.83;10.40;;;1.90;99.90;;;;;;5013901;28;20129;-58
2021/01/03 07:26:04;;;;;;;19.08;9.30;;;1.80;99.90;;;;;;5001890;28;20498;-58
2021/01/03 07:28:32;;;;;;;16.08;9.15;;;1.80;99.90;;;;;;4992276;28;20060;-59
2021/01/03 07:31:33;;;;;;;21.30;9.68;;;1.70;99.90;;;;;;4993960;28;20023;-60
2021/01/03 07:34:11;;;;;;;20.38;9.40;;;1.70;99.90;;;;;;4993472;28;20046;-59
2021/01/03 07:36:58;;;;;;;22.30;10.40;;;1.80;99.90;;;;;;4994353;28;20030;-58
2021/01/03 07:39:31;;;;;;;21.30;10.90;;;1.70;99.90;;;;;;4993348;28;20035;-58
2021/01/03 07:42:28;;;;;;;21.02;10.43;;;1.60;99.90;;;;;;4994253;28;20044;-58
2021/01/03 07:44:57;;;;;;;20.77;10.13;;;1.60;99.90;;;;;;4993813;28;20026;-59
2021/01/03 07:47:48;;;;;;;20.63;10.50;;;1.60;99.90;;;;;;4993874;28;20036;-59
2021/01/03 07:50:17;;;;;;;24.25;11.10;;;1.60;99.90;;;;;;4993977;28;20026;-59
2021/01/03 07:53:34;;;;;;;19.15;9.93;;;1.70;99.90;;;;;;4993944;28;20043;-58
2021/01/03 07:56:32;;;;;;;20.73;11.30;;;1.60;99.90;;;;;;4987311;28;20047;-57
2021/01/03 07:58:58;;;;;;;22.05;10.23;;;1.70;99.90;;;;;;4992508;28;20046;-58
2021/01/03 08:01:33;;;;;;;26.00;10.93;;;1.70;99.90;;;;;;4993723;28;20026;-58
2021/01/03 08:04:33;;;;;;;21.55;10.70;;;1.70;99.90;;;;;;4992393;28;20038;-59
2021/01/03 08:07:18;;;;;;;23.25;11.15;;;1.60;99.90;;;;;;4992475;28;20089;-59
2021/01/03 08:09:44;;;;;;;20.10;10.48;;;1.60;99.90;;;;;;4992044;28;20030;-58
2021/01/03 08:12:45;;;;;;;21.42;10.52;;;1.70;99.90;;;;;;4993749;28;20109;-60
2021/01/03 08:15:28;;;;;;;21.63;10.23;;;1.70;99.90;;;;;;4992988;28;20085;-61
2021/01/03 08:18:19;;;;;;;21.73;10.55;;;1.70;99.90;;;;;;4983633;28;20038;-59
2021/01/03 08:20:49;;;;;;;24.95;11.32;;;1.70;99.90;;;;;;4992177;28;20046;-66
2021/01/03 08:23:32;;;;;;;21.33;10.73;;;1.50;99.90;;;;;;4993166;28;20042;-60
2021/01/03 08:26:06;;;;;;;24.00;11.48;;;1.50;99.90;;;;;;4992154;28;20036;-59
2021/01/03 08:28:42;;;;;;;28.38;12.68;;;1.50;99.90;;;;;;4992963;28;20091;-60
2021/01/03 08:31:13;;;;;;;27.05;12.98;;;1.70;99.90;;;;;;4972912;28;20030;-59
2021/01/03 08:33:42;;;;;;;29.57;13.20;;;1.70;99.90;;;;;;4973942;28;20031;-60
2021/01/03 08:36:30;;;;;;;24.83;11.60;;;1.70;99.90;;;;;;4972817;28;20027;-59
2021/01/03 08:39:13;;;;;;;23.25;11.05;;;1.80;99.90;;;;;;4973614;28;20027;-61
2021/01/03 08:42:00;;;;;;;24.08;11.57;;;1.70;99.90;;;;;;4972134;28;20074;-60
2021/01/03 08:44:34;;;;;;;22.52;11.25;;;1.80;99.90;;;;;;4971990;28;20066;-60
2021/01/03 08:47:11;;;;;;;24.77;13.57;;;1.80;99.90;;;;;;4972464;28;20046;-60
2021/01/03 08:49:40;;;;;;;26.13;12.60;;;1.90;99.90;;;;;;4972482;28;20127;-61
2021/01/03 08:52:23;;;;;;;21.95;10.68;;;2.00;99.90;;;;;;4973492;28;20033;-60
2021/01/03 08:55:03;;;;;;;23.70;11.73;;;2.10;99.90;;;;;;4971934;28;20031;-58
2021/01/03 08:57:30;;;;;;;24.25;11.63;;;2.10;99.90;;;;;;4972560;28;20031;-61
2021/01/03 08:59:57;;;;;;;25.38;12.13;;;2.00;99.90;;;;;;4985223;28;20045;-61
2021/01/03 09:02:28;;;;;;;22.88;10.90;;;2.00;99.90;;;;;;4993100;28;20062;-59
2021/01/03 09:05:01;;;;;;;24.53;11.70;;;2.00;99.90;;;;;;4992665;28;20026;-61
2021/01/03 09:07:34;;;;;;;30.33;11.82;;;2.00;99.90;;;;;;4991771;28;20042;-57
2021/01/03 09:10:01;;;;;;;22.42;11.07;;;2.20;99.90;;;;;;4992723;28;20061;-58
2021/01/03 09:12:44;;;;;;;25.80;11.90;;;2.30;99.90;;;;;;4991762;28;20065;-58
2021/01/03 09:15:24;;;;;;;23.60;12.45;;;2.30;99.90;;;;;;5007886;28;20249;-57
2021/01/03 09:18:30;;;;;;;26.05;11.68;;;2.20;99.90;;;;;;4992459;28;20037;-58
2021/01/03 09:21:08;;;;;;;24.60;11.65;;;2.20;99.90;;;;;;4991268;28;20027;-59
2021/01/03 09:23:40;;;;;;;24.27;12.18;;;2.20;99.90;;;;;;4990955;28;20061;-58
2021/01/03 09:26:07;;;;;;;26.08;12.70;;;2.20;99.90;;;;;;4992427;28;20030;-58
2021/01/03 09:28:42;;;;;;;26.40;11.45;;;2.30;99.90;;;;;;4992680;28;20037;-59
2021/01/03 09:31:25;;;;;;;28.10;13.40;;;2.20;99.90;;;;;;4991091;28;20031;-59
2021/01/03 09:34:10;;;;;;;26.70;13.07;;;2.30;99.90;;;;;;4992064;28;20030;-60
2021/01/03 09:37:02;;;;;;;25.67;12.63;;;2.40;99.90;;;;;;4991332;28;20038;-59
2021/01/03 09:39:51;;;;;;;24.50;12.38;;;2.50;99.90;;;;;;4991477;28;20034;-59
2021/01/03 09:42:35;;;;;;;28.15;12.50;;;2.50;99.90;;;;;;4991392;28;20065;-60
2021/01/03 09:45:20;;;;;;;26.23;12.38;;;2.50;99.90;;;;;;4992372;28;20031;-58
2021/01/03 09:47:48;;;;;;;26.50;12.40;;;2.60;99.90;;;;;;4992296;28;20039;-58
2021/01/03 09:50:23;;;;;;;26.75;12.70;;;2.60;99.90;;;;;;4992500;28;20080;-58
2021/01/03 09:53:29;;;;;;;28.92;13.00;;;2.70;99.90;;;;;;4992250;28;20043;-60
2021/01/03 09:56:07;;;;;;;23.63;11.43;;;2.70;99.90;;;;;;4993056;28;20208;-60
2021/01/03 09:58:40;;;;;;;22.50;10.88;;;2.80;99.90;;;;;;4995848;28;20038;-60
2021/01/03 10:01:34;;;;;;;26.88;10.85;;;2.80;99.90;;;;;;4996107;28;20030;-57
2021/01/03 10:04:24;;;;;;;21.10;10.68;;;2.80;99.90;;;;;;4996063;28;20030;-60
2021/01/03 10:07:14;;;;;;;29.07;12.17;;;2.80;99.90;;;;;;4996023;28;20030;-60
2021/01/03 10:09:53;;;;;;;21.33;10.82;;;2.80;99.90;;;;;;4995692;28;20317;-60
2021/01/03 10:12:46;;;;;;;23.42;11.32;;;2.70;99.90;;;;;;4994612;28;20086;-59
2021/01/03 10:15:26;;;;;;;23.70;11.77;;;2.80;99.90;;;;;;4995090;28;20088;-60
2021/01/03 10:18:01;;;;;;;26.13;10.68;;;3.00;99.90;;;;;;4994173;28;20027;-59
2021/01/03 10:20:45;;;;;;;27.02;12.45;;;3.00;99.90;;;;;;4993992;28;20035;-59
2021/01/03 10:23:39;;;;;;;27.60;12.32;;;3.00;99.90;;;;;;4994774;28;20061;-59
2021/01/03 10:26:19;;;;;;;22.40;11.02;;;3.20;99.90;;;;;;4995249;28;20089;-60
2021/01/03 10:28:45;;;;;;;23.95;11.45;;;3.10;99.90;;;;;;4995496;28;20026;-60
2021/01/03 10:31:11;;;;;;;24.13;11.50;;;3.20;99.90;;;;;;4995183;28;20042;-59
2021/01/03 10:33:37;;;;;;;26.98;11.35;;;3.30;99.90;;;;;;4994419;28;20027;-59
2021/01/03 10:36:03;;;;;;;25.33;12.48;;;3.30;99.90;;;;;;4995142;28;20085;-60
2021/01/03 10:38:29;;;;;;;23.17;12.07;;;3.40;99.90;;;;;;4995166;28;20063;-59
2021/01/03 10:40:55;;;;;;;22.17;11.18;;;3.50;99.90;;;;;;4995378;28;20041;-59
2021/01/03 10:43:21;;;;;;;30.05;11.98;;;3.60;99.90;;;;;;4995149;28;20042;-60
2021/01/03 10:45:47;;;;;;;25.90;11.93;;;3.60;99.90;;;;;;4995041;28;20117;-60
2021/01/03 10:48:13;;;;;;;23.10;11.80;;;3.60;99.90;;;;;;4995122;28;20027;-60
2021/01/03 10:50:39;;;;;;;22.17;11.70;;;3.70;99.90;;;;;;4995283;28;20026;-59
2021/01/03 10:53:05;;;;;;;20.23;10.98;;;3.80;99.90;;;;;;4994896;28;20030;-59
2021/01/03 10:55:31;;;;;;;24.80;11.65;;;3.70;99.90;;;;;;4993803;28;20145;-56
2021/01/03 10:57:57;;;;;;;21.15;10.77;;;3.40;99.90;;;;;;4994640;28;20082;-59
2021/01/03 11:00:24;;;;;;;24.05;12.02;;;3.70;99.90;;;;;;4993553;28;20423;-60
2021/01/03 11:02:50;;;;;;;23.98;12.32;;;3.70;99.90;;;;;;4994516;28;20124;-59
2021/01/03 11:05:19;;;;;;;21.42;11.73;;;3.60;99.90;;;;;;4995125;28;20081;-60
2021/01/03 11:07:45;;;;;;;19.45;11.05;;;3.80;99.90;;;;;;4994354;28;20066;-60
2021/01/03 11:10:13;;;;;;;21.27;11.18;;;3.80;99.90;;;;;;4995085;28;20069;-59
2021/01/03 11:12:39;;;;;;;19.15;9.90;;;4.00;99.90;;;;;;4994734;28;20144;-60
2021/01/03 11:15:08;;;;;;;23.80;11.95;;;4.00;99.90;;;;;;4994676;28;20105;-59
2021/01/03 11:17:34;;;;;;;24.00;12.65;;;4.10;99.90;;;;;;4994643;28;20069;-58
2021/01/03 11:20:00;;;;;;;26.20;11.98;;;3.90;99.90;;;;;;4994483;28;20116;-60
2021/01/03 11:22:26;;;;;;;22.45;11.75;;;3.90;99.90;;;;;;4994319;28;20089;-60
2021/01/03 11:24:52;;;;;;;25.95;11.68;;;3.90;99.90;;;;;;4994346;28;20027;-59
2021/01/03 11:27:20;;;;;;;24.38;11.07;;;3.90;99.90;;;;;;4994463;28;20060;-60
2021/01/03 11:29:49;;;;;;;22.13;11.57;;;3.90;99.90;;;;;;4994240;28;20034;-60
2021/01/03 11:32:23;;;;;;;22.55;11.45;;;4.00;99.90;;;;;;4994746;28;20038;-58
2021/01/03 11:34:49;;;;;;;25.45;11.45;;;4.00;99.90;;;;;;4993491;28;20036;-59
2021/01/03 11:37:22;;;;;;;23.13;11.50;;;4.10;99.90;;;;;;4993725;28;20034;-59
2021/01/03 11:39:49;;;;;;;22.17;11.13;;;4.00;99.90;;;;;;4993838;28;20041;-56
2021/01/03 11:42:26;;;;;;;20.88;10.77;;;3.80;99.90;;;;;;4994081;28;20041;-57
2021/01/03 11:44:52;;;;;;;23.63;10.88;;;4.00;99.90;;;;;;4992389;28;20038;-59
2021/01/03 11:47:18;;;;;;;21.42;10.27;;;3.90;99.90;;;;;;5009175;28;20081;-59
2021/01/03 11:49:45;;;;;;;23.95;11.57;;;3.90;99.90;;;;;;4994016;28;20026;-59
2021/01/03 11:52:11;;;;;;;19.25;10.80;;;4.00;99.90;;;;;;4993862;28;20066;-59
2021/01/03 11:54:38;;;;;;;21.50;10.35;;;3.90;99.90;;;;;;4993854;28;20038;-59
2021/01/03 11:57:05;;;;;;;22.40;10.68;;;4.00;99.90;;;;;;4992802;28;20026;-59
2021/01/03 11:59:31;;;;;;;23.58;11.50;;;3.90;99.90;;;;;;4993553;28;20034;-57
2021/01/03 12:02:05;;;;;;;20.50;10.30;;;3.90;99.90;;;;;;4993731;28;20062;-59
2021/01/03 12:04:31;;;;;;;23.40;11.23;;;3.90;99.90;;;;;;4993745;28;20042;-59
2021/01/03 12:07:01;;;;;;;22.80;11.13;;;3.90;99.90;;;;;;4993533;28;20030;-59
2021/01/03 12:09:29;;;;;;;19.35;10.85;;;4.10;99.90;;;;;;4993690;28;20035;-58
2021/01/03 12:11:57;;;;;;;21.08;10.95;;;4.10;99.90;;;;;;4993834;28;20057;-58
2021/01/03 12:14:25;;;;;;;19.88;9.30;;;3.90;99.90;;;;;;4993694;28;20089;-57
2021/01/03 12:17:04;;;;;;;16.58;9.73;;;3.90;99.90;;;;;;4993632;28;20038;-58
2021/01/03 12:19:30;;;;;;;21.52;10.38;;;3.90;99.90;;;;;;4993107;28;20161;-56
2021/01/03 12:22:03;;;;;;;17.60;9.85;;;4.00;99.90;;;;;;4993260;28;20046;-58
2021/01/03 12:24:29;;;;;;;21.30;9.27;;;4.10;99.90;;;;;;4992402;28;20061;-56
2021/01/03 12:26:56;;;;;;;18.35;9.70;;;3.90;99.90;;;;;;4993471;28;20030;-60
2021/01/03 12:29:24;;;;;;;20.98;9.52;;;4.10;99.90;;;;;;4993310;28;20043;-58
2021/01/03 12:31:54;;;;;;;20.95;10.45;;;3.90;99.90;;;;;;4992945;28;20033;-58
2021/01/03 12:34:25;;;;;;;19.00;9.82;;;4.00;99.90;;;;;;4993500;28;20065;-56
2021/01/03 12:36:52;;;;;;;18.97;10.50;;;3.90;99.90;;;;;;4992996;28;20077;-58
2021/01/03 12:39:20;;;;;;;20.77;11.05;;;3.80;99.90;;;;;;4992921;28;20295;-57
2021/01/03 12:41:46;;;;;;;21.50;10.50;;;3.80;99.90;;;;;;4966564;28;20034;-60
2021/01/03 12:44:13;;;;;;;19.60;10.20;;;3.80;99.90;;;;;;5006826;28;20034;-59
2021/01/03 12:46:44;;;;;;;21.42;10.55;;;3.90;99.90;;;;;;4993078;28;20125;-59
2021/01/03 12:49:11;;;;;;;22.35;10.68;;;3.80;99.90;;;;;;4993155;28;20058;-59
2021/01/03 12:51:38;;;;;;;20.08;10.20;;;4.00;99.90;;;;;;4993168;28;20030;-59
2021/01/03 12:54:05;;;;;;;20.27;9.80;;;3.90;99.90;;;;;;4992949;28;20041;-59
2021/01/03 12:56:31;;;;;;;18.38;9.52;;;3.80;99.90;;;;;;4992588;28;20213;-58
2021/01/03 12:59:00;;;;;;;18.83;9.60;;;3.80;99.90;;;;;;4992390;28;20140;-57
2021/01/03 13:01:34;;;;;;;25.48;11.10;;;3.70;99.90;;;;;;4991267;28;20042;-58
2021/01/03 13:04:02;;;;;;;22.73;10.77;;;3.70;99.90;;;;;;4973431;28;20081;-59
2021/01/03 13:06:28;;;;;;;19.85;10.02;;;3.70;99.90;;;;;;4982474;28;20034;-58
2021/01/03 13:08:54;;;;;;;20.60;10.52;;;3.70;99.90;;;;;;4991780;28;20068;-59
2021/01/03 13:11:20;;;;;;;18.60;9.70;;;3.70;99.90;;;;;;4992868;28;20042;-59
2021/01/03 13:13:47;;;;;;;21.85;10.82;;;3.60;99.90;;;;;;4992460;28;20081;-58
2021/01/03 13:16:14;;;;;;;21.23;9.77;;;3.70;99.90;;;;;;4992539;28;20030;-57
2021/01/03 13:18:40;;;;;;;18.52;9.32;;;3.70;99.90;;;;;;4992839;28;20034;-60
2021/01/03 13:21:06;;;;;;;18.45;9.80;;;3.70;99.90;;;;;;4991404;28;20088;-59